createdAt,value
2018-03-21T00:00:06.187Z,1.00
2018-03-21T00:02:32.164Z,1.10
2018-03-21T00:04:58.133Z,0.80
2018-03-21T00:07:24.854Z,0.87
2018-03-21T00:09:50.808Z,0.70
2018-03-21T00:12:16.770Z,1.03
2018-03-21T00:14:43.303Z,1.10
2018-03-21T00:17:09.365Z,1.00
2018-03-21T00:19:35.358Z,1.20
2018-03-21T00:22:01.361Z,1.10
2018-03-21T00:24:27.346Z,1.03
2018-03-21T00:26:54.064Z,1.03
2018-03-21T00:29:20.095Z,0.73
2018-03-21T00:31:46.048Z,1.00
2018-03-21T00:34:12.032Z,1.00
2018-03-21T00:36:38.383Z,1.10
2018-03-21T00:39:04.418Z,1.70
2018-03-21T00:41:30.389Z,0.90
2018-03-21T00:44:03.615Z,0.87
2018-03-21T00:46:29.559Z,0.87
2018-03-21T00:48:55.533Z,0.87
2018-03-21T00:51:21.514Z,1.00
2018-03-21T00:53:48.957Z,0.63
2018-03-21T00:56:14.929Z,1.30
2018-03-21T00:58:40.936Z,1.40
2018-03-21T01:01:07.034Z,0.73
2018-03-21T01:03:33.000Z,1.20
2018-03-21T01:05:59.009Z,1.33
2018-03-21T01:08:24.978Z,1.17
2018-03-21T01:10:50.937Z,1.20
2018-03-21T01:13:17.178Z,1.70
2018-03-21T01:15:43.132Z,1.00
2018-03-21T01:18:09.916Z,0.87
2018-03-21T01:20:35.999Z,1.00
2018-03-21T01:23:01.984Z,1.10
2018-03-21T01:25:27.950Z,1.10
2018-03-21T01:27:53.969Z,1.00
2018-03-21T01:30:19.929Z,1.20
2018-03-21T01:32:45.880Z,1.20
2018-03-21T01:35:11.873Z,1.00
2018-03-21T01:37:37.878Z,1.10
2018-03-21T01:40:04.612Z,0.63
2018-03-21T01:42:30.635Z,1.37
2018-03-21T01:44:56.630Z,1.00
2018-03-21T01:47:22.593Z,1.00
2018-03-21T01:49:48.584Z,0.87
2018-03-21T01:52:14.550Z,0.70
2018-03-21T01:54:40.578Z,0.90
2018-03-21T01:57:06.652Z,0.87
2018-03-21T01:59:32.641Z,1.10
2018-03-21T02:01:58.625Z,1.47
2018-03-21T02:04:24.645Z,0.93
2018-03-21T02:06:50.614Z,0.97
2018-03-21T02:09:17.313Z,0.97
2018-03-21T02:11:43.293Z,1.33
2018-03-21T02:14:09.307Z,0.97
2018-03-21T02:16:35.323Z,1.10
2018-03-21T02:19:01.297Z,1.30
2018-03-21T02:21:27.267Z,0.90
2018-03-21T02:23:53.219Z,0.87
2018-03-21T02:26:19.207Z,1.47
2018-03-21T02:28:45.162Z,1.50
2018-03-21T02:31:12.055Z,1.10
2018-03-21T02:33:38.076Z,0.67
2018-03-21T02:36:04.075Z,1.00
2018-03-21T02:38:30.060Z,1.10
2018-03-21T02:40:56.031Z,1.33
2018-03-21T02:43:21.987Z,1.43
2018-03-21T02:45:48.699Z,1.27
2018-03-21T02:48:14.688Z,1.50
2018-03-21T02:50:41.383Z,1.23
2018-03-21T02:53:07.372Z,0.97
2018-03-21T02:55:34.432Z,1.10
2018-03-21T02:58:01.147Z,1.10
2018-03-21T03:00:27.104Z,0.77
2018-03-21T03:02:53.857Z,1.03
2018-03-21T03:05:19.801Z,1.20
2018-03-21T03:07:46.519Z,1.10
2018-03-21T03:10:12.481Z,1.07
2018-03-21T03:12:39.231Z,1.27
2018-03-21T03:15:05.221Z,1.20
2018-03-21T03:17:31.211Z,1.33
2018-03-21T03:19:57.900Z,1.17
2018-03-21T03:22:23.860Z,1.37
2018-03-21T03:24:49.835Z,1.37
2018-03-21T03:27:16.544Z,0.97
2018-03-21T03:29:42.509Z,1.30
2018-03-21T03:32:08.633Z,1.20
2018-03-21T03:34:35.381Z,1.23
2018-03-21T03:37:01.331Z,1.37
2018-03-21T03:39:27.352Z,1.70
2018-03-21T03:41:53.324Z,1.23
2018-03-21T03:44:20.015Z,1.57
2018-03-21T03:46:46.326Z,1.33
2018-03-21T03:49:13.028Z,1.53
2018-03-21T03:51:39.109Z,1.53
2018-03-21T03:54:05.343Z,1.10
2018-03-21T03:56:32.057Z,1.23
2018-03-21T03:58:58.016Z,1.50
2018-03-21T04:01:24.005Z,1.20
2018-03-21T04:03:49.970Z,1.13
2018-03-21T04:06:15.963Z,1.13
2018-03-21T04:08:41.965Z,1.07
2018-03-21T04:11:07.974Z,1.73
2018-03-21T04:13:33.980Z,1.50
2018-03-21T04:16:00.136Z,0.80
2018-03-21T04:18:32.980Z,1.80
2018-03-21T04:21:03.625Z,1.07
2018-03-21T04:23:30.324Z,1.30
2018-03-21T04:25:56.279Z,1.00
2018-03-21T04:28:22.266Z,1.13
2018-03-21T04:30:48.222Z,1.43
2018-03-21T04:33:14.188Z,1.23
2018-03-21T04:35:40.175Z,1.50
2018-03-21T04:38:06.171Z,1.23
2018-03-21T04:40:32.132Z,1.13
2018-03-21T04:42:58.834Z,1.50
2018-03-21T04:45:24.840Z,1.23
2018-03-21T04:47:50.863Z,1.13
2018-03-21T04:50:16.870Z,1.00
2018-03-21T04:52:42.949Z,1.20
2018-03-21T04:55:08.976Z,1.40
2018-03-21T04:57:35.718Z,1.43
2018-03-21T05:00:02.434Z,1.33
2018-03-21T05:02:28.401Z,1.90
2018-03-21T05:04:55.141Z,1.43
2018-03-21T05:07:21.104Z,1.47
2018-03-21T05:09:47.072Z,1.40
2018-03-21T05:12:13.339Z,1.70
2018-03-21T05:14:39.327Z,1.50
2018-03-21T05:17:05.415Z,1.17
2018-03-21T05:19:31.390Z,1.37
2018-03-21T05:21:57.348Z,1.40
2018-03-21T05:24:23.352Z,1.27
2018-03-21T05:26:49.320Z,1.20
2018-03-21T05:29:15.284Z,1.50
2018-03-21T05:31:41.243Z,1.70
2018-03-21T05:34:07.286Z,1.47
2018-03-21T05:36:34.031Z,1.20
2018-03-21T05:39:00.718Z,1.83
2018-03-21T05:41:26.711Z,0.97
2018-03-21T05:43:54.172Z,2.10
2018-03-21T05:46:20.345Z,1.97
2018-03-21T05:48:47.106Z,2.10
2018-03-21T05:51:13.915Z,1.80
2018-03-21T05:53:46.907Z,1.90
2018-03-21T05:56:12.887Z,1.70
2018-03-21T05:58:39.663Z,1.87
2018-03-21T06:01:05.663Z,2.13
2018-03-21T06:03:31.615Z,2.70
2018-03-21T06:05:58.303Z,2.10
2018-03-21T06:08:24.609Z,1.90
2018-03-21T06:10:51.320Z,1.47
2018-03-21T06:13:17.407Z,2.30
2018-03-21T06:15:43.391Z,2.23
2018-03-21T06:18:09.452Z,1.80
2018-03-21T06:20:35.473Z,2.23
2018-03-21T06:23:01.480Z,2.13
2018-03-21T06:25:27.429Z,2.47
2018-03-21T06:27:53.375Z,1.87
2018-03-21T06:30:19.375Z,1.50
2018-03-21T06:32:45.337Z,1.57
2018-03-21T06:35:11.299Z,1.47
2018-03-21T06:37:37.395Z,1.20
2018-03-21T06:40:03.352Z,2.77
2018-03-21T06:42:29.319Z,2.47
2018-03-21T06:44:56.052Z,2.07
2018-03-21T06:47:22.007Z,2.07
2018-03-21T06:49:48.703Z,2.00
2018-03-21T06:52:14.965Z,1.63
2018-03-21T06:54:40.996Z,2.03
2018-03-21T06:57:07.008Z,1.40
2018-03-21T06:59:33.020Z,1.90
2018-03-21T07:02:00.192Z,1.70
2018-03-21T07:04:26.156Z,1.43
2018-03-21T07:06:52.143Z,1.83
2018-03-21T07:09:18.831Z,1.87
2018-03-21T07:11:44.772Z,1.30
2018-03-21T07:17:16.763Z,2.00
2018-03-21T07:19:42.736Z,1.80
2018-03-21T07:22:08.726Z,1.90
2018-03-21T07:24:34.759Z,2.60
2018-03-21T07:27:00.748Z,2.40
2018-03-21T07:29:26.702Z,1.97
2018-03-21T07:31:53.415Z,1.80
2018-03-21T07:34:19.394Z,2.57
2018-03-21T07:36:45.356Z,1.57
2018-03-21T07:39:11.319Z,2.00
2018-03-21T07:41:37.428Z,2.50
2018-03-21T07:44:03.388Z,2.00
2018-03-21T07:46:29.344Z,2.10
2018-03-21T07:49:02.327Z,1.73
2018-03-21T07:51:28.305Z,2.07
2018-03-21T07:53:54.282Z,2.20
2018-03-21T07:56:20.872Z,1.77
2018-03-21T07:58:46.839Z,2.20
2018-03-21T08:01:13.541Z,1.90
2018-03-21T08:03:40.103Z,1.90
2018-03-21T08:06:06.105Z,2.00
2018-03-21T08:08:32.073Z,2.13
2018-03-21T08:10:58.044Z,1.40
2018-03-21T08:13:24.742Z,1.40
2018-03-21T08:15:50.756Z,1.60
2018-03-21T08:18:16.663Z,1.50
2018-03-21T08:20:43.379Z,1.20
2018-03-21T08:23:09.352Z,1.10
2018-03-21T08:25:35.373Z,1.50
2018-03-21T08:28:01.397Z,1.43
2018-03-21T08:30:27.293Z,1.40
2018-03-21T08:32:53.668Z,1.17
2018-03-21T08:35:19.624Z,1.40
2018-03-21T08:37:45.587Z,0.97
2018-03-21T08:40:12.297Z,1.07
2018-03-21T08:42:38.306Z,1.60
2018-03-21T08:45:04.915Z,0.90
2018-03-21T08:47:31.622Z,1.33
2018-03-21T08:49:57.576Z,1.27
2018-03-21T08:52:23.521Z,1.00
2018-03-21T08:54:49.528Z,1.40
2018-03-21T08:57:15.481Z,0.87
2018-03-21T08:59:41.439Z,0.60
2018-03-21T09:02:08.254Z,1.40
2018-03-21T09:04:34.316Z,0.77
2018-03-21T09:07:00.357Z,1.27
2018-03-21T09:09:26.647Z,1.17
2018-03-21T09:11:52.603Z,0.93
2018-03-21T09:14:18.551Z,1.70
2018-03-21T09:16:45.003Z,1.10
2018-03-21T09:19:11.333Z,1.17
2018-03-21T09:21:37.340Z,1.20
2018-03-21T09:24:03.355Z,0.70
2018-03-21T09:26:29.349Z,1.43
2018-03-21T09:28:55.299Z,1.10
2018-03-21T09:31:21.429Z,0.73
2018-03-21T09:33:47.391Z,0.80
2018-03-21T09:36:14.083Z,1.00
2018-03-21T09:38:40.191Z,1.27
2018-03-21T09:41:06.191Z,1.20
2018-03-21T09:43:33.659Z,1.23
2018-03-21T09:45:59.711Z,1.40
2018-03-21T09:48:25.651Z,1.23
2018-03-21T09:50:52.343Z,0.90
2018-03-21T09:53:18.397Z,1.33
2018-03-21T09:55:44.355Z,1.23
2018-03-21T09:58:18.873Z,1.03
2018-03-21T10:00:44.859Z,2.00
2018-03-21T10:03:11.559Z,1.60
2018-03-21T10:05:37.701Z,1.30
2018-03-21T10:08:03.661Z,1.30
2018-03-21T10:10:29.607Z,1.50
2018-03-21T10:12:56.312Z,1.40
2018-03-21T10:15:22.312Z,2.10
2018-03-21T10:17:49.002Z,1.40
2018-03-21T10:20:14.981Z,1.90
2018-03-21T10:22:41.021Z,2.43
2018-03-21T10:25:07.772Z,1.20
2018-03-21T10:27:34.548Z,0.90
2018-03-21T10:30:00.512Z,1.63
2018-03-21T10:32:26.468Z,1.37
2018-03-21T10:34:52.708Z,1.80
2018-03-21T10:37:18.656Z,1.47
2018-03-21T10:39:44.617Z,2.27
2018-03-21T10:42:11.367Z,2.00
2018-03-21T10:44:38.126Z,1.60
2018-03-21T10:47:04.875Z,1.67
2018-03-21T10:49:30.858Z,2.30
2018-03-21T10:51:56.805Z,1.70
2018-03-21T10:54:22.753Z,2.17
2018-03-21T10:56:48.724Z,1.63
2018-03-21T10:59:15.432Z,1.53
2018-03-21T11:01:41.403Z,1.80
2018-03-21T11:04:08.195Z,1.87
2018-03-21T11:06:34.198Z,1.83
2018-03-21T11:09:00.123Z,1.47
2018-03-21T11:11:26.824Z,1.67
2018-03-21T11:13:52.783Z,1.57
2018-03-21T11:16:18.739Z,1.30
2018-03-21T11:18:45.076Z,1.67
2018-03-21T11:21:11.105Z,1.57
2018-03-21T11:23:37.824Z,1.53
2018-03-21T11:26:03.831Z,1.70
2018-03-21T11:28:29.788Z,1.43
2018-03-21T11:30:55.748Z,1.43
2018-03-21T11:33:21.867Z,1.90
2018-03-21T11:35:47.810Z,1.87
2018-03-21T11:38:13.788Z,1.53
2018-03-21T11:40:40.658Z,1.23
2018-03-21T11:43:07.382Z,1.83
2018-03-21T11:45:33.335Z,1.50
2018-03-21T11:48:00.039Z,1.50
2018-03-21T11:50:26.012Z,1.90
2018-03-21T11:52:51.972Z,1.90
2018-03-21T11:55:18.702Z,1.50
2018-03-21T11:57:44.660Z,1.93
2018-03-21T12:00:10.660Z,2.17
2018-03-21T12:02:38.142Z,2.03
2018-03-21T12:05:04.091Z,1.80
2018-03-21T12:07:30.792Z,1.80
2018-03-21T12:09:56.764Z,1.73
2018-03-21T12:12:22.748Z,1.70
2018-03-21T12:14:48.695Z,1.73
2018-03-21T12:17:15.064Z,1.40
2018-03-21T12:19:41.085Z,1.97
2018-03-21T12:22:07.098Z,1.50
2018-03-21T12:24:33.108Z,1.60
2018-03-21T12:26:59.806Z,1.93
2018-03-21T12:29:25.758Z,1.23
2018-03-21T12:31:51.716Z,1.10
2018-03-21T12:34:18.411Z,1.40
2018-03-21T12:36:44.358Z,0.90
2018-03-21T12:39:10.387Z,1.30
2018-03-21T12:41:36.380Z,0.90
2018-03-21T12:44:03.071Z,1.37
2018-03-21T12:46:29.053Z,1.30
2018-03-21T12:48:54.996Z,1.20
2018-03-21T12:51:21.729Z,1.30
2018-03-21T12:53:48.059Z,1.23
2018-03-21T12:56:14.021Z,1.13
2018-03-21T12:58:39.975Z,1.00
2018-03-21T13:01:06.764Z,1.30
2018-03-21T13:03:32.712Z,1.10
2018-03-21T13:05:58.672Z,1.17
2018-03-21T13:08:24.778Z,0.97
2018-03-21T13:10:50.732Z,1.07
2018-03-21T13:13:16.950Z,1.00
2018-03-21T13:15:42.959Z,0.97
2018-03-21T13:18:08.969Z,0.90
2018-03-21T13:20:35.692Z,1.13
2018-03-21T13:23:02.040Z,1.03
2018-03-21T13:25:28.676Z,0.80
2018-03-21T13:27:54.644Z,1.37
2018-03-21T13:30:22.496Z,1.00
2018-03-21T13:32:48.452Z,1.40
2018-03-21T13:35:14.408Z,1.00
2018-03-21T13:37:41.164Z,1.10
2018-03-21T13:40:07.889Z,1.00
2018-03-21T13:42:33.843Z,1.17
2018-03-21T13:45:00.580Z,0.90
2018-03-21T13:47:26.523Z,1.30
2018-03-21T13:49:52.476Z,1.20
2018-03-21T13:52:19.215Z,1.23
2018-03-21T13:54:45.165Z,1.00
2018-03-21T13:57:11.880Z,1.20
2018-03-21T13:59:37.859Z,1.40
2018-03-21T14:02:03.808Z,1.17
2018-03-21T14:04:29.755Z,1.50
2018-03-21T14:06:55.757Z,0.93
2018-03-21T14:09:22.467Z,1.20
2018-03-21T14:11:48.685Z,1.37
2018-03-21T14:14:15.464Z,1.17
2018-03-21T14:16:41.504Z,1.33
2018-03-21T14:19:07.504Z,1.17
2018-03-21T14:21:33.467Z,1.23
2018-03-21T14:23:59.415Z,1.10
2018-03-21T14:26:25.375Z,1.00
2018-03-21T14:28:52.082Z,1.10
2018-03-21T14:31:18.048Z,1.57
2018-03-21T14:33:44.024Z,1.37
2018-03-21T14:36:10.207Z,1.30
2018-03-21T14:38:36.981Z,0.90
2018-03-21T14:41:02.939Z,1.20
2018-03-21T14:43:28.920Z,1.30
2018-03-21T14:45:54.887Z,1.10
2018-03-21T14:48:20.847Z,1.40
2018-03-21T14:50:47.141Z,1.40
2018-03-21T14:53:13.100Z,1.37
2018-03-21T14:55:39.088Z,1.40
2018-03-21T14:58:05.069Z,1.17
2018-03-21T15:00:31.759Z,1.30
2018-03-21T15:02:57.721Z,1.50
2018-03-21T15:05:23.683Z,1.00
2018-03-21T15:07:49.983Z,1.13
2018-03-21T15:10:15.939Z,1.57
2018-03-21T15:12:41.925Z,1.20
2018-03-21T15:15:08.679Z,1.50
2018-03-21T15:17:34.724Z,2.00
2018-03-21T15:20:00.715Z,1.70
2018-03-21T15:22:26.672Z,1.77
2018-03-21T15:24:53.375Z,1.40
2018-03-21T15:27:19.847Z,1.50
2018-03-21T15:29:46.582Z,1.40
2018-03-21T15:32:12.534Z,2.17
2018-03-21T15:34:38.623Z,1.50
2018-03-21T15:37:04.629Z,1.90
2018-03-21T15:39:31.359Z,1.37
2018-03-21T15:41:57.372Z,1.90
2018-03-21T15:44:23.330Z,1.77
2018-03-21T15:46:49.275Z,1.60
2018-03-21T15:49:15.242Z,1.60
2018-03-21T15:51:41.936Z,1.40
2018-03-21T15:54:07.923Z,1.60
2018-03-21T15:56:35.052Z,1.80
2018-03-21T15:59:01.027Z,1.77
2018-03-21T16:01:27.004Z,1.57
2018-03-21T16:03:52.973Z,2.27
2018-03-21T16:06:18.936Z,2.10
2018-03-21T16:08:44.906Z,1.90
2018-03-21T16:11:10.887Z,1.80
2018-03-21T16:13:37.635Z,4.53
2018-03-21T16:16:04.354Z,4.70
2018-03-21T16:18:30.311Z,4.53
2018-03-21T16:20:57.747Z,3.03
2018-03-21T16:23:23.712Z,2.93
2018-03-21T16:25:49.690Z,2.20
2018-03-21T16:28:15.701Z,2.27
2018-03-21T16:30:41.651Z,2.13
2018-03-21T16:33:08.391Z,2.17
2018-03-21T16:35:35.129Z,1.83
2018-03-21T16:38:01.159Z,2.00
2018-03-21T16:40:27.126Z,2.40
2018-03-21T16:42:53.819Z,2.23
2018-03-21T16:45:19.771Z,2.20
2018-03-21T16:47:45.799Z,2.20
2018-03-21T16:50:11.769Z,2.27
2018-03-21T16:52:37.788Z,2.20
2018-03-21T16:55:03.803Z,1.87
2018-03-21T16:57:29.774Z,2.00
2018-03-21T16:59:55.727Z,1.97
2018-03-21T17:02:22.449Z,2.70
2018-03-21T17:04:48.408Z,3.00
2018-03-21T17:07:15.144Z,2.17
2018-03-21T17:09:41.455Z,2.40
2018-03-21T17:12:07.479Z,2.47
2018-03-21T17:14:33.434Z,2.83
2018-03-21T17:16:59.443Z,2.63
2018-03-21T17:19:25.399Z,2.67
2018-03-21T17:21:51.356Z,3.73
2018-03-21T17:24:17.367Z,3.83
2018-03-21T17:26:43.347Z,3.53
2018-03-21T17:29:09.394Z,3.93
2018-03-21T17:31:36.161Z,5.00
2018-03-21T17:34:02.138Z,4.00
2018-03-21T17:36:28.095Z,4.27
2018-03-21T17:38:54.472Z,5.10
2018-03-21T17:41:20.431Z,5.47
2018-03-21T17:43:46.405Z,5.37
2018-03-21T17:46:12.408Z,5.17
2018-03-21T17:48:38.397Z,4.70
2018-03-21T17:51:05.180Z,5.30
2018-03-21T17:53:31.180Z,4.90
2018-03-21T17:55:57.145Z,4.60
2018-03-21T17:58:23.101Z,5.17
2018-03-21T18:00:49.069Z,4.87
2018-03-21T18:03:15.777Z,4.77
2018-03-21T18:05:41.772Z,4.73
2018-03-21T18:08:08.192Z,5.67
2018-03-21T18:10:34.151Z,5.27
2018-03-21T18:13:00.107Z,5.43
2018-03-21T18:15:26.836Z,4.70
2018-03-21T18:17:53.546Z,5.00
2018-03-21T18:20:19.507Z,4.87
2018-03-21T18:22:45.508Z,5.13
2018-03-21T18:25:11.557Z,6.77
2018-03-21T18:27:37.584Z,7.03
2018-03-21T18:30:03.603Z,7.03
2018-03-21T18:32:29.568Z,5.80
2018-03-21T18:34:55.524Z,6.20
2018-03-21T18:37:21.510Z,5.97
2018-03-21T18:39:48.367Z,5.23
2018-03-21T18:42:15.079Z,6.43
2018-03-21T18:44:41.141Z,6.17
2018-03-21T18:47:07.892Z,6.23
2018-03-21T18:49:34.724Z,6.57
2018-03-21T18:52:01.479Z,6.10
2018-03-21T18:54:27.481Z,6.77
2018-03-21T18:56:53.783Z,6.80
2018-03-21T18:59:19.766Z,6.27
2018-03-21T19:01:45.713Z,6.50
2018-03-21T19:04:11.691Z,6.60
2018-03-21T19:06:37.683Z,7.63
2018-03-21T19:09:03.638Z,6.97
2018-03-21T19:11:29.599Z,7.40
2018-03-21T19:13:55.588Z,7.27
2018-03-21T19:16:21.578Z,6.63
2018-03-21T19:18:48.271Z,6.90
2018-03-21T19:21:14.268Z,6.03
2018-03-21T19:23:40.993Z,6.70
2018-03-21T19:26:07.217Z,6.17
2018-03-21T19:28:33.195Z,5.47
2018-03-21T19:30:59.891Z,5.57
2018-03-21T19:33:25.876Z,5.63
2018-03-21T19:35:52.619Z,5.70
2018-03-21T19:38:18.564Z,6.93
2018-03-21T19:40:45.445Z,7.10
2018-03-21T19:43:11.500Z,6.80
2018-03-21T19:45:37.486Z,6.67
2018-03-21T19:48:03.439Z,7.73
2018-03-21T19:50:30.156Z,7.20
2018-03-21T19:52:56.101Z,6.73
2018-03-21T19:55:22.046Z,7.33
2018-03-21T19:57:48.026Z,7.87
2018-03-21T20:00:13.996Z,7.00
2018-03-21T20:02:39.986Z,7.87
2018-03-21T20:05:06.084Z,6.83
2018-03-21T20:07:32.028Z,6.97
2018-03-21T20:09:57.993Z,6.80
2018-03-21T20:12:23.959Z,7.40
2018-03-21T20:14:49.907Z,9.33
2018-03-21T20:17:15.863Z,8.50
2018-03-21T20:19:41.867Z,8.27
2018-03-21T20:22:07.864Z,9.27
2018-03-21T20:24:33.816Z,8.23
2018-03-21T20:27:00.911Z,8.17
2018-03-21T20:29:26.863Z,7.77
2018-03-21T20:31:52.823Z,7.70
2018-03-21T20:34:19.535Z,7.67
2018-03-21T20:36:45.531Z,7.83
2018-03-21T20:39:11.492Z,7.57
2018-03-21T20:41:37.613Z,8.40
2018-03-21T20:44:03.583Z,8.73
2018-03-21T20:46:29.541Z,8.57
2018-03-21T20:48:55.508Z,10.37
2018-03-21T20:51:21.468Z,10.50
2018-03-21T20:53:47.461Z,12.97
2018-03-21T20:56:14.180Z,11.80
2018-03-21T20:58:40.155Z,11.17
2018-03-21T21:01:06.567Z,11.67
2018-03-21T21:03:32.519Z,11.23
2018-03-21T21:05:59.216Z,10.07
2018-03-21T21:08:25.688Z,9.07
2018-03-21T21:10:51.648Z,8.43
2018-03-21T21:13:17.599Z,9.67
2018-03-21T21:15:44.731Z,7.97
2018-03-21T21:18:10.751Z,8.17
2018-03-21T21:20:37.536Z,7.93
2018-03-21T21:23:04.249Z,8.63
2018-03-21T21:25:30.227Z,9.60
2018-03-21T21:27:56.923Z,8.13
2018-03-21T21:30:22.884Z,8.50
2018-03-21T21:32:49.208Z,8.20
2018-03-21T21:35:15.210Z,8.13
2018-03-21T21:37:41.227Z,8.10
2018-03-21T21:40:07.210Z,8.93
2018-03-21T21:42:33.579Z,8.70
2018-03-21T21:44:59.600Z,8.43
2018-03-21T21:47:26.243Z,8.80
2018-03-21T21:49:52.227Z,7.77
2018-03-21T21:52:18.177Z,8.67
2018-03-21T21:54:44.925Z,8.63
2018-03-21T21:57:11.625Z,8.63
2018-03-21T21:59:37.631Z,8.97
2018-03-21T22:02:03.588Z,9.20
2018-03-21T22:04:29.952Z,9.33
2018-03-21T22:06:55.903Z,8.97
2018-03-21T22:09:21.854Z,9.10
2018-03-21T22:11:48.572Z,9.67
2018-03-21T22:14:14.618Z,9.53
2018-03-21T22:16:41.339Z,9.17
2018-03-21T22:19:07.323Z,9.67
2018-03-21T22:21:33.611Z,9.37
2018-03-21T22:23:59.572Z,10.30
2018-03-21T22:26:25.526Z,9.67
2018-03-21T22:28:51.499Z,10.30
2018-03-21T22:31:17.466Z,10.37
2018-03-21T22:33:43.438Z,11.03
2018-03-21T22:36:09.420Z,11.57
2018-03-21T22:38:35.428Z,10.90
2018-03-21T22:41:02.133Z,10.60
2018-03-21T22:43:28.105Z,11.30
2018-03-21T22:45:55.131Z,10.13
2018-03-21T22:48:21.083Z,11.37
2018-03-21T22:50:47.033Z,12.17
2018-03-21T22:53:12.990Z,11.63
2018-03-21T22:55:39.710Z,11.47
2018-03-21T22:58:05.725Z,11.20
2018-03-21T23:00:31.683Z,11.13
2018-03-21T23:02:57.647Z,9.60
2018-03-21T23:05:24.439Z,10.37
2018-03-21T23:07:50.395Z,13.13
2018-03-21T23:10:16.357Z,11.63
2018-03-21T23:12:43.102Z,12.80
2018-03-21T23:15:09.850Z,13.50
2018-03-21T23:17:36.584Z,12.80
2018-03-21T23:20:02.960Z,13.63
2018-03-21T23:22:29.669Z,12.60
2018-03-21T23:24:55.628Z,12.33
2018-03-21T23:27:21.600Z,12.73
2018-03-21T23:29:47.556Z,13.27
2018-03-21T23:32:13.539Z,12.93
2018-03-21T23:34:39.537Z,11.87
2018-03-21T23:37:05.849Z,12.07
2018-03-21T23:39:31.812Z,12.03
2018-03-21T23:41:57.795Z,11.73
2018-03-21T23:44:23.769Z,11.97
2018-03-21T23:46:49.725Z,13.57
2018-03-21T23:49:15.696Z,12.87
2018-03-21T23:51:41.738Z,12.30
2018-03-21T23:54:07.819Z,11.37
2018-03-21T23:56:33.785Z,12.80
2018-03-21T23:58:59.752Z,11.30
